In Rescue
 
Open Full Screen Window  High Contrast Mode
Wind Gusting 00 knots
05
May 20, 2019 2:08 PM CDT
Weather Information
Wind Direction
  050 °
Wind Speed
  05 kt (6 mph)
Wind Gust
  00 kt (0 mph)
Altimeter
30.14 in
Visibility
10 SM
Temperature
15° C
59° F
Dewpoint
05° C
41° F
Humidity
51%
1hr Rain Fall
00.00 in.
24hr Rain Fall
00.01 in.
Sky Condition
Scattered @ 4,900 ft
VFR

METAR KPEX 201908Z AUTO 05005KT 10SM SCT049 15/05 A3014 RMK AO2 T01480047

FAA Disclaimer: The data displayed is for advisory purposes only and is not to be used for flight planning or operations.